createdAt,value
2022-10-26T00:02:05.400Z,97994.02
2022-10-26T00:04:36.487Z,97991.92
2022-10-26T00:07:07.209Z,97990.76
2022-10-26T00:09:38.295Z,97990.35
2022-10-26T00:12:09.713Z,97992.50
2022-10-26T00:14:40.694Z,98000.30
2022-10-26T00:17:12.137Z,98004.73
2022-10-26T00:19:41.442Z,98006.12
2022-10-26T00:22:12.399Z,98005.20
2022-10-26T00:24:43.181Z,98006.84
2022-10-26T00:27:14.114Z,98006.84
2022-10-26T00:29:45.203Z,98008.98
2022-10-26T00:32:16.026Z,98010.35
2022-10-26T00:34:47.082Z,98006.43
2022-10-26T00:37:18.144Z,98005.04
2022-10-26T00:39:49.349Z,98001.62
2022-10-26T00:42:21.947Z,97993.55
2022-10-26T00:45:01.799Z,97996.16
2022-10-26T00:47:38.211Z,97993.20
2022-10-26T00:50:13.551Z,97991.67
2022-10-26T00:52:45.025Z,97988.10
2022-10-26T00:55:21.273Z,97986.63
2022-10-26T00:57:54.639Z,97991.98
2022-10-26T01:00:25.571Z,97988.66
2022-10-26T01:03:00.607Z,97992.94
2022-10-26T01:05:32.947Z,97992.17
2022-10-26T01:08:04.812Z,97992.27
2022-10-26T01:10:36.383Z,97996.35
2022-10-26T01:13:08.342Z,97994.11
2022-10-26T01:15:47.645Z,97994.16
2022-10-26T01:18:27.064Z,97992.55
2022-10-26T01:21:29.335Z,97994.33
2022-10-26T01:24:20.012Z,97993.46
2022-10-26T01:27:02.711Z,97993.41
2022-10-26T01:29:56.052Z,97994.23
2022-10-26T01:32:32.251Z,97995.44
2022-10-26T01:35:10.328Z,97993.84
2022-10-26T01:37:47.540Z,97994.95
2022-10-26T01:40:24.347Z,97990.67
2022-10-26T01:42:59.589Z,97994.34
2022-10-26T01:45:32.119Z,97992.45
2022-10-26T01:48:05.491Z,97988.31
2022-10-26T01:50:37.277Z,97984.84
2022-10-26T01:53:08.376Z,97984.04
2022-10-26T01:55:51.882Z,97983.98
2022-10-26T01:58:38.859Z,97984.09
2022-10-26T02:01:24.280Z,97981.73
2022-10-26T02:04:07.100Z,97985.75
2022-10-26T02:06:48.243Z,97988.30
2022-10-26T02:09:27.683Z,97988.35
2022-10-26T02:11:59.601Z,97985.48
2022-10-26T02:14:38.899Z,97987.27
2022-10-26T02:17:18.272Z,97984.92
2022-10-26T02:19:53.211Z,97981.40
2022-10-26T02:22:30.078Z,97983.08
2022-10-26T02:25:05.668Z,97980.30
2022-10-26T02:27:42.576Z,97979.76
2022-10-26T02:30:15.880Z,97979.38
2022-10-26T02:32:51.812Z,97978.36
2022-10-26T02:35:28.630Z,97976.43
2022-10-26T02:38:04.140Z,97976.07
2022-10-26T02:40:35.807Z,97976.63
2022-10-26T02:43:10.230Z,97979.33
2022-10-26T02:45:45.882Z,97979.58
2022-10-26T02:48:17.779Z,97984.67
2022-10-26T02:50:59.483Z,97989.10
2022-10-26T02:53:35.942Z,97995.13
2022-10-26T02:56:11.855Z,97997.15
2022-10-26T02:58:50.732Z,97997.05
2022-10-26T03:01:22.526Z,97997.36
2022-10-26T03:03:58.119Z,98000.11
2022-10-26T03:06:29.750Z,97997.40
2022-10-26T03:09:00.818Z,97998.37
2022-10-26T03:11:32.040Z,97998.05
2022-10-26T03:14:02.977Z,98002.00
2022-10-26T03:16:33.816Z,98002.63
2022-10-26T03:19:04.858Z,97999.60
2022-10-26T03:21:35.898Z,97998.60
2022-10-26T03:24:05.698Z,97998.53
2022-10-26T03:26:36.716Z,97997.27
2022-10-26T03:29:09.026Z,97996.60
2022-10-26T03:31:39.975Z,97999.85
2022-10-26T03:34:10.859Z,98000.27
2022-10-26T03:36:41.754Z,97999.51
2022-10-26T03:39:12.856Z,98000.94
2022-10-26T03:41:44.346Z,98001.27
2022-10-26T03:44:15.296Z,98000.05
2022-10-26T03:46:46.616Z,98000.80
2022-10-26T03:49:17.658Z,98001.70
2022-10-26T03:51:49.343Z,98006.55
2022-10-26T03:54:20.277Z,98006.58
2022-10-26T03:56:55.125Z,98012.36
2022-10-26T03:59:26.526Z,98013.71
2022-10-26T04:01:58.093Z,98011.34
2022-10-26T04:04:29.442Z,98012.13
2022-10-26T04:07:00.533Z,98008.27
2022-10-26T04:09:31.319Z,98007.47
2022-10-26T04:12:02.025Z,98011.32
2022-10-26T04:14:32.871Z,98018.41
2022-10-26T04:17:03.654Z,98012.98
2022-10-26T04:19:34.571Z,98013.30
2022-10-26T04:22:05.742Z,98013.32
2022-10-26T04:24:36.594Z,98013.63
2022-10-26T04:27:07.470Z,98012.23
2022-10-26T04:29:38.475Z,98011.42
2022-10-26T04:32:09.671Z,98012.88
2022-10-26T04:34:41.053Z,98013.39
2022-10-26T04:37:12.254Z,98010.91
2022-10-26T04:39:43.523Z,98007.29
2022-10-26T04:42:14.598Z,98005.29
2022-10-26T04:44:44.133Z,98004.43
2022-10-26T04:47:15.226Z,98003.11
2022-10-26T04:49:46.149Z,98004.69
2022-10-26T04:52:17.033Z,98006.07
2022-10-26T04:54:48.002Z,98005.97
2022-10-26T04:57:18.844Z,98013.21
2022-10-26T04:59:49.872Z,98011.64
2022-10-26T05:02:21.590Z,98008.58
2022-10-26T05:04:52.874Z,98004.08
2022-10-26T05:07:24.089Z,98005.16
2022-10-26T05:09:54.982Z,98008.78
2022-10-26T05:12:26.159Z,98012.34
2022-10-26T05:15:02.964Z,98010.31
2022-10-26T05:17:36.096Z,98011.67
2022-10-26T05:20:13.098Z,98010.10
2022-10-26T05:22:44.170Z,98012.29
2022-10-26T05:25:14.960Z,98007.69
2022-10-26T05:27:45.782Z,98004.32
2022-10-26T05:30:17.037Z,98002.52
2022-10-26T05:32:46.656Z,98007.84
2022-10-26T05:35:17.897Z,98012.73
2022-10-26T05:37:48.937Z,98012.97
2022-10-26T05:40:20.400Z,98015.50
2022-10-26T05:42:52.121Z,98018.71
2022-10-26T05:45:23.285Z,98021.92
2022-10-26T05:47:57.384Z,98022.48
2022-10-26T05:50:31.020Z,98027.79
2022-10-26T05:53:00.515Z,98032.67
2022-10-26T05:55:32.537Z,98034.11
2022-10-26T05:58:04.175Z,98038.03
2022-10-26T06:00:36.390Z,98042.98
2022-10-26T06:03:15.911Z,98044.41
2022-10-26T06:05:56.050Z,98047.01
2022-10-26T06:08:29.418Z,98050.01
2022-10-26T06:11:02.845Z,98050.09
2022-10-26T06:13:35.026Z,98050.02
2022-10-26T06:16:23.828Z,98054.13
2022-10-26T06:19:03.552Z,98049.42
2022-10-26T06:21:47.159Z,98049.24
2022-10-26T06:24:26.040Z,98049.16
2022-10-26T06:27:03.188Z,98050.84
2022-10-26T06:29:50.142Z,98045.61
2022-10-26T06:32:23.711Z,98051.60
2022-10-26T06:35:04.882Z,98052.65
2022-10-26T06:37:38.778Z,98057.36
2022-10-26T06:40:15.775Z,98053.65
2022-10-26T06:42:47.891Z,98055.15
2022-10-26T06:45:20.682Z,98058.43
2022-10-26T06:47:59.451Z,98056.30
2022-10-26T06:50:38.146Z,98055.64
2022-10-26T06:53:22.968Z,98056.83
2022-10-26T06:55:54.509Z,98057.55
2022-10-26T06:58:29.180Z,98054.18
2022-10-26T07:01:00.778Z,98052.35
2022-10-26T07:03:31.671Z,98055.25
2022-10-26T07:06:02.678Z,98057.73
2022-10-26T07:08:33.216Z,98060.33
2022-10-26T07:11:04.973Z,98061.50
2022-10-26T07:13:36.122Z,98061.43
2022-10-26T07:16:08.320Z,98065.97
2022-10-26T07:18:39.287Z,98067.06
2022-10-26T07:21:11.065Z,98069.45
2022-10-26T07:23:42.031Z,98068.80
2022-10-26T07:26:13.028Z,98067.17
2022-10-26T07:28:42.407Z,98070.64
2022-10-26T07:31:13.658Z,98074.48
2022-10-26T07:33:45.422Z,98075.26
2022-10-26T07:36:16.154Z,98075.13
2022-10-26T07:38:47.352Z,98073.96
2022-10-26T07:41:18.782Z,98074.55
2022-10-26T07:43:50.849Z,98075.73
2022-10-26T07:46:21.656Z,98080.24
2022-10-26T07:48:51.098Z,98078.70
2022-10-26T07:51:22.574Z,98079.91
2022-10-26T07:53:53.872Z,98083.79
2022-10-26T07:56:24.703Z,98085.32
2022-10-26T07:58:56.429Z,98082.19
2022-10-26T08:01:27.696Z,98086.20
2022-10-26T08:03:58.831Z,98086.37
2022-10-26T08:06:29.772Z,98087.84
2022-10-26T08:08:59.074Z,98086.89
2022-10-26T08:11:30.266Z,98089.41
2022-10-26T08:14:01.381Z,98087.98
2022-10-26T08:16:31.303Z,98087.14
2022-10-26T08:19:02.328Z,98089.20
2022-10-26T08:21:46.911Z,98084.30
2022-10-26T08:24:17.879Z,98084.89
2022-10-26T08:26:48.869Z,98088.61
2022-10-26T08:29:19.906Z,98089.09
2022-10-26T08:31:49.856Z,98094.02
2022-10-26T08:34:20.774Z,98093.86
2022-10-26T08:36:50.543Z,98098.48
2022-10-26T08:39:21.980Z,98096.41
2022-10-26T08:41:57.340Z,98094.20
2022-10-26T08:44:45.954Z,98096.75
2022-10-26T08:47:27.415Z,98096.44
2022-10-26T08:50:07.928Z,98096.08
2022-10-26T08:52:50.507Z,98095.34
2022-10-26T08:55:26.685Z,98096.11
2022-10-26T08:57:58.037Z,98093.56
2022-10-26T09:00:31.448Z,98095.51
2022-10-26T09:03:13.148Z,98094.73
2022-10-26T09:05:54.629Z,98096.66
2022-10-26T09:08:35.811Z,98099.95
2022-10-26T09:11:14.373Z,98106.83
2022-10-26T09:14:00.062Z,98103.96
2022-10-26T09:16:40.007Z,98104.69
2022-10-26T09:19:30.121Z,98106.68
2022-10-26T09:22:09.762Z,98103.89
2022-10-26T09:24:44.264Z,98107.46
2022-10-26T09:27:22.431Z,98109.70
2022-10-26T09:29:55.041Z,98109.17
2022-10-26T09:32:32.374Z,98112.19
2022-10-26T09:35:11.298Z,98112.33
2022-10-26T09:37:47.189Z,98116.93
2022-10-26T09:40:24.464Z,98119.34
2022-10-26T09:43:02.330Z,98119.33
2022-10-26T09:45:36.613Z,98120.56
2022-10-26T09:48:13.845Z,98118.52
2022-10-26T09:50:49.723Z,98121.06
2022-10-26T09:53:20.957Z,98120.73
2022-10-26T09:55:57.694Z,98121.59
2022-10-26T09:58:31.681Z,98124.57
2022-10-26T10:01:03.727Z,98122.73
2022-10-26T10:03:35.179Z,98123.26
2022-10-26T10:06:20.426Z,98123.60
2022-10-26T10:09:11.084Z,98117.60
2022-10-26T10:11:44.383Z,98116.88
2022-10-26T10:14:18.918Z,98117.28
2022-10-26T10:17:00.077Z,98118.73
2022-10-26T10:19:33.167Z,98119.77
2022-10-26T10:22:10.919Z,98121.28
2022-10-26T10:24:44.854Z,98118.20
2022-10-26T10:27:21.408Z,98120.12
2022-10-26T10:29:58.462Z,98117.38
2022-10-26T10:32:36.991Z,98113.69
2022-10-26T10:35:30.193Z,98112.45
2022-10-26T10:38:01.737Z,98111.54
2022-10-26T10:40:34.105Z,98113.17
2022-10-26T10:43:13.348Z,98111.67
2022-10-26T10:45:50.409Z,98106.30
2022-10-26T10:48:24.254Z,98107.57
2022-10-26T10:50:57.705Z,98110.14
2022-10-26T10:53:34.483Z,98114.23
2022-10-26T10:56:10.769Z,98110.88
2022-10-26T10:58:51.702Z,98111.89
2022-10-26T11:01:28.206Z,98112.00
2022-10-26T11:04:21.442Z,98110.20
2022-10-26T11:06:53.053Z,98107.23
2022-10-26T11:09:29.435Z,98107.66
2022-10-26T11:12:04.942Z,98105.73
2022-10-26T11:14:40.142Z,98104.69
2022-10-26T11:17:19.465Z,98104.55
2022-10-26T11:19:55.714Z,98103.69
2022-10-26T11:22:31.033Z,98100.81
2022-10-26T11:25:06.225Z,98098.65
2022-10-26T11:27:45.991Z,98100.81
2022-10-26T11:30:20.282Z,98100.11
2022-10-26T11:32:56.016Z,98096.54
2022-10-26T11:35:31.807Z,98093.83
2022-10-26T11:38:10.924Z,98096.61
2022-10-26T11:40:46.527Z,98092.77
2022-10-26T11:43:25.229Z,98089.15
2022-10-26T11:46:06.687Z,98091.25
2022-10-26T11:48:44.150Z,98089.25
2022-10-26T11:51:21.778Z,98088.72
2022-10-26T11:53:53.894Z,98085.39
2022-10-26T11:56:31.368Z,98083.45
2022-10-26T12:01:38.689Z,98084.38
2022-10-26T12:04:11.249Z,98081.88
2022-10-26T12:06:42.559Z,98081.29
2022-10-26T12:09:19.476Z,98083.02
2022-10-26T12:11:57.468Z,98082.43
2022-10-26T12:14:38.425Z,98086.08
2022-10-26T12:17:16.448Z,98091.41
2022-10-26T12:19:52.973Z,98089.77
2022-10-26T12:22:30.531Z,98089.92
2022-10-26T12:25:22.513Z,98090.31
2022-10-26T12:27:56.028Z,98092.03
2022-10-26T12:30:32.737Z,98091.53
2022-10-26T12:33:05.390Z,98094.92
2022-10-26T12:35:46.768Z,98094.18
2022-10-26T12:38:50.802Z,98093.61
2022-10-26T12:41:33.339Z,98090.06
2022-10-26T12:44:37.682Z,98093.65
2022-10-26T12:47:09.306Z,98090.48
2022-10-26T12:50:02.992Z,98086.92
2022-10-26T12:52:44.675Z,98085.91
2022-10-26T12:56:06.607Z,98082.54
2022-10-26T12:59:05.138Z,98075.80
2022-10-26T13:02:16.413Z,98071.38
2022-10-26T13:05:26.615Z,98071.70
2022-10-26T13:08:05.689Z,98065.21
2022-10-26T13:10:38.210Z,98066.60
2022-10-26T13:13:10.464Z,98065.23
2022-10-26T13:15:53.081Z,98061.60
2022-10-26T13:18:24.959Z,98061.48
2022-10-26T13:21:04.044Z,98061.80
2022-10-26T13:23:39.984Z,98061.63
2022-10-26T13:26:13.373Z,98064.73
2022-10-26T13:28:50.839Z,98063.50
2022-10-26T13:32:01.352Z,98066.63
2022-10-26T13:34:34.685Z,98069.86
2022-10-26T13:37:14.937Z,98072.73
2022-10-26T13:39:47.559Z,98072.14
2022-10-26T13:42:22.809Z,98071.15
2022-10-26T13:44:58.391Z,98071.70
2022-10-26T13:47:40.420Z,98074.49
2022-10-26T13:50:17.656Z,98076.63
2022-10-26T13:52:52.861Z,98077.02
2022-10-26T13:55:29.536Z,98082.58
2022-10-26T13:58:19.110Z,98080.86
2022-10-26T14:01:13.957Z,98080.85
2022-10-26T14:03:45.569Z,98087.21
2022-10-26T14:06:22.955Z,98096.05
2022-10-26T14:08:56.576Z,98095.11
2022-10-26T14:11:33.628Z,98094.30
2022-10-26T14:14:05.657Z,98094.78
2022-10-26T14:16:37.049Z,98090.73
2022-10-26T14:19:08.408Z,98093.59
2022-10-26T14:21:49.889Z,98094.89
2022-10-26T14:24:45.261Z,98096.45
2022-10-26T14:27:19.994Z,98102.33
2022-10-26T14:30:10.197Z,98104.48
2022-10-26T14:32:42.885Z,98108.66
2022-10-26T14:35:16.576Z,98107.77
2022-10-26T14:37:52.452Z,98110.33
2022-10-26T14:40:29.423Z,98106.54
2022-10-26T14:43:03.360Z,98105.37
2022-10-26T14:45:48.004Z,98107.13
2022-10-26T14:48:32.889Z,98113.43
2022-10-26T14:51:09.448Z,98119.06
2022-10-26T14:53:42.416Z,98119.23
2022-10-26T14:56:24.876Z,98122.73
2022-10-26T14:58:56.646Z,98119.18
2022-10-26T15:01:36.291Z,98120.13
2022-10-26T15:04:08.734Z,98118.42
2022-10-26T15:06:44.797Z,98123.85
2022-10-26T15:09:33.429Z,98127.63
2022-10-26T15:12:07.361Z,98128.48
2022-10-26T15:14:38.423Z,98131.84
2022-10-26T15:17:07.713Z,98135.19
2022-10-26T15:19:40.143Z,98136.94
2022-10-26T15:22:32.278Z,98136.09
2022-10-26T15:25:06.749Z,98137.89
2022-10-26T15:27:37.702Z,98145.92
2022-10-26T15:30:19.513Z,98149.33
2022-10-26T15:32:50.956Z,98149.41
2022-10-26T15:35:33.124Z,98151.31
2022-10-26T15:38:04.090Z,98154.22
2022-10-26T15:40:37.051Z,98150.48
2022-10-26T15:43:11.885Z,98147.95
2022-10-26T15:45:49.183Z,98153.28
2022-10-26T15:48:25.662Z,98153.48
2022-10-26T15:50:56.448Z,98154.95
2022-10-26T15:53:28.549Z,98159.03
2022-10-26T15:56:01.541Z,98163.10
2022-10-26T15:58:34.526Z,98166.98
2022-10-26T16:01:05.925Z,98164.87
2022-10-26T16:03:37.192Z,98165.58
2022-10-26T16:06:14.987Z,98163.78
2022-10-26T16:08:50.968Z,98166.42
2022-10-26T16:11:22.084Z,98169.94
2022-10-26T16:13:54.502Z,98173.58
2022-10-26T16:16:27.048Z,98169.74
2022-10-26T16:19:06.418Z,98167.70
2022-10-26T16:21:43.812Z,98169.86
2022-10-26T16:24:14.984Z,98175.74
2022-10-26T16:26:44.335Z,98183.49
2022-10-26T16:29:15.783Z,98186.46
2022-10-26T16:31:47.153Z,98191.19
2022-10-26T16:34:18.424Z,98194.38
2022-10-26T16:36:49.287Z,98192.06
2022-10-26T16:39:20.478Z,98197.77
2022-10-26T16:41:52.618Z,98201.11
2022-10-26T16:44:23.851Z,98205.48
2022-10-26T16:46:53.078Z,98205.23
2022-10-26T16:49:23.961Z,98205.98
2022-10-26T16:51:55.030Z,98207.27
2022-10-26T16:54:26.381Z,98211.02
2022-10-26T16:56:57.387Z,98213.97
2022-10-26T16:59:28.125Z,98208.41
2022-10-26T17:01:59.302Z,98210.84
2022-10-26T17:04:30.488Z,98207.76
2022-10-26T17:06:59.892Z,98215.33
2022-10-26T17:09:30.728Z,98216.16
2022-10-26T17:12:02.339Z,98217.70
2022-10-26T17:14:33.303Z,98222.92
2022-10-26T17:17:04.571Z,98221.61
2022-10-26T17:19:35.978Z,98217.59
2022-10-26T17:22:08.762Z,98215.02
2022-10-26T17:24:39.964Z,98220.69
2022-10-26T17:27:09.383Z,98222.61
2022-10-26T17:29:40.290Z,98224.55
2022-10-26T17:32:11.180Z,98227.84
2022-10-26T17:34:40.457Z,98231.37
2022-10-26T17:37:11.367Z,98241.61
2022-10-26T17:39:42.407Z,98244.57
2022-10-26T17:42:13.480Z,98248.77
2022-10-26T17:44:44.636Z,98250.10
2022-10-26T17:47:15.874Z,98252.86
2022-10-26T17:49:47.396Z,98254.48
2022-10-26T17:52:19.979Z,98256.52
2022-10-26T17:54:51.425Z,98261.65
2022-10-26T17:57:22.574Z,98267.98
2022-10-26T17:59:53.918Z,98270.77
2022-10-26T18:02:25.294Z,98275.91
2022-10-26T18:04:56.836Z,98281.73
2022-10-26T18:07:31.037Z,98286.09
2022-10-26T18:10:13.880Z,98289.05
2022-10-26T18:12:53.951Z,98292.80
2022-10-26T18:15:25.303Z,98301.05
2022-10-26T18:17:58.449Z,98301.98
2022-10-26T18:20:32.566Z,98299.10
2022-10-26T18:23:08.544Z,98298.40
2022-10-26T18:25:39.870Z,98299.77
2022-10-26T18:30:43.286Z,98301.05
2022-10-26T18:33:18.423Z,98300.74
2022-10-26T18:35:49.820Z,98301.19
2022-10-26T18:38:21.120Z,98301.77
2022-10-26T18:40:56.838Z,98305.50
2022-10-26T18:43:29.126Z,98302.11
2022-10-26T18:46:08.739Z,98299.45
2022-10-26T18:48:40.626Z,98299.75
2022-10-26T18:51:14.404Z,98302.09
2022-10-26T18:53:52.392Z,98306.54
2022-10-26T18:56:25.344Z,98307.23
2022-10-26T18:59:03.162Z,98306.84
2022-10-26T19:01:38.041Z,98310.46
2022-10-26T19:04:11.108Z,98312.69
2022-10-26T19:06:47.643Z,98312.14
2022-10-26T19:09:20.215Z,98312.98
2022-10-26T19:11:52.038Z,98312.95
2022-10-26T19:14:23.370Z,98320.17
2022-10-26T19:16:54.737Z,98320.81
2022-10-26T19:19:26.184Z,98321.52
2022-10-26T19:21:59.694Z,98327.43
2022-10-26T19:24:30.791Z,98331.27
2022-10-26T19:27:02.095Z,98332.27
2022-10-26T19:29:33.264Z,98338.45
2022-10-26T19:32:03.175Z,98343.98
2022-10-26T19:34:34.799Z,98346.81
2022-10-26T19:37:06.294Z,98349.81
2022-10-26T19:39:37.805Z,98353.68
2022-10-26T19:42:08.995Z,98352.77
2022-10-26T19:44:39.988Z,98356.25
2022-10-26T19:47:09.774Z,98355.72
2022-10-26T19:49:40.877Z,98360.45
2022-10-26T19:52:12.041Z,98362.64
2022-10-26T19:54:43.137Z,98367.06
2022-10-26T19:57:14.200Z,98363.34
2022-10-26T19:59:45.547Z,98370.20
2022-10-26T20:02:16.725Z,98370.09
2022-10-26T20:04:46.594Z,98374.77
2022-10-26T20:07:17.556Z,98376.19
2022-10-26T20:09:48.803Z,98380.71
2022-10-26T20:12:19.888Z,98386.20
2022-10-26T20:14:50.559Z,98391.41
2022-10-26T20:17:23.917Z,98394.98
2022-10-26T20:19:57.079Z,98395.07
2022-10-26T20:22:27.904Z,98394.23
2022-10-26T20:24:57.390Z,98396.05
2022-10-26T20:27:28.629Z,98398.59
2022-10-26T20:29:59.696Z,98402.52
2022-10-26T20:32:30.529Z,98399.16
2022-10-26T20:35:01.657Z,98395.94
2022-10-26T20:37:34.035Z,98401.70
2022-10-26T20:40:07.530Z,98400.38
2022-10-26T20:42:39.696Z,98402.77
2022-10-26T20:45:16.925Z,98407.85
2022-10-26T20:47:49.252Z,98408.44
2022-10-26T20:50:21.827Z,98410.31
2022-10-26T20:53:00.606Z,98407.65
2022-10-26T20:55:37.038Z,98406.49
2022-10-26T20:58:15.270Z,98405.15
2022-10-26T21:00:52.355Z,98407.79
2022-10-26T21:03:23.480Z,98407.80
2022-10-26T21:05:54.958Z,98406.67
2022-10-26T21:08:25.906Z,98411.65
2022-10-26T21:10:55.219Z,98415.30
2022-10-26T21:13:26.121Z,98412.70
2022-10-26T21:15:57.403Z,98410.59
2022-10-26T21:18:28.510Z,98407.85
2022-10-26T21:21:01.566Z,98412.45
2022-10-26T21:23:36.484Z,98415.33
2022-10-26T21:26:08.147Z,98414.95
2022-10-26T21:28:41.618Z,98417.50
2022-10-26T21:31:15.259Z,98421.34
2022-10-26T21:33:47.214Z,98419.93
2022-10-26T21:36:18.351Z,98419.72
2022-10-26T21:38:47.828Z,98422.36
2022-10-26T21:41:17.850Z,98420.41
2022-10-26T21:43:59.259Z,98422.56
2022-10-26T21:46:40.740Z,98417.39
2022-10-26T21:49:10.228Z,98419.86
2022-10-26T21:51:43.387Z,98418.90
2022-10-26T21:54:14.571Z,98420.04
2022-10-26T21:56:46.080Z,98418.53
2022-10-26T21:59:17.051Z,98418.23
2022-10-26T22:01:48.497Z,98423.69
2022-10-26T22:04:19.567Z,98427.77
2022-10-26T22:06:49.018Z,98433.05
2022-10-26T22:09:20.471Z,98431.86
2022-10-26T22:11:51.631Z,98432.48
2022-10-26T22:14:22.831Z,98435.09
2022-10-26T22:16:53.872Z,98434.80
2022-10-26T22:19:23.179Z,98435.34
2022-10-26T22:21:54.144Z,98434.02
2022-10-26T22:24:25.083Z,98430.86
2022-10-26T22:26:56.092Z,98428.44
2022-10-26T22:29:27.036Z,98427.45
2022-10-26T22:31:57.831Z,98424.80
2022-10-26T22:34:28.796Z,98421.61
2022-10-26T22:36:59.755Z,98423.63
2022-10-26T22:39:31.028Z,98426.52
2022-10-26T22:42:01.999Z,98429.09
2022-10-26T22:44:33.149Z,98434.38
2022-10-26T22:47:04.176Z,98436.77
2022-10-26T22:49:34.938Z,98441.95
2022-10-26T22:52:06.128Z,98439.30
2022-10-26T22:54:37.175Z,98441.60
2022-10-26T22:57:08.299Z,98440.17
2022-10-26T22:59:39.500Z,98443.80
2022-10-26T23:02:10.720Z,98442.84
2022-10-26T23:04:42.092Z,98443.01
2022-10-26T23:07:13.101Z,98447.30
2022-10-26T23:09:42.403Z,98453.45
2022-10-26T23:12:13.421Z,98453.45
2022-10-26T23:14:44.587Z,98455.08
2022-10-26T23:17:15.631Z,98452.81
2022-10-26T23:19:44.797Z,98456.87
2022-10-26T23:22:15.685Z,98458.54
2022-10-26T23:24:45.175Z,98458.46
2022-10-26T23:27:16.456Z,98457.30
2022-10-26T23:29:45.830Z,98453.05
2022-10-26T23:32:16.658Z,98457.50
2022-10-26T23:34:47.576Z,98455.77
2022-10-26T23:37:19.683Z,98457.91
2022-10-26T23:39:50.665Z,98459.22
2022-10-26T23:42:20.213Z,98465.09
2022-10-26T23:44:51.459Z,98468.85
2022-10-26T23:47:22.313Z,98469.88
2022-10-26T23:49:53.473Z,98473.27
2022-10-26T23:52:24.163Z,98471.75
2022-10-26T23:54:55.205Z,98472.34
2022-10-26T23:57:26.079Z,98472.45
2022-10-26T23:59:56.991Z,98473.45
